Esneux, Belgium
Current Conditions -  °F | °C
As of 1:50 AM on Wednesday 28 Jan 2015 (Local Time) from EBLG Reporting Station
Haze Haze  
Wind Chill: 30°   Ceiling: 600
Heat Index: 37°   Visibility: 2.5mi
Dew Point: 36°   Wind: 10mph
Humidity: 93%   Direction: 210°SSW
Pressure: 30.12"   Gusts: NA
Location:  50.54°N, 5.57°E
Report Text: EBLG 280050Z 21009KT 4000 BR BKN006 BKN028 03/02 Q1020 TEMPO 3000 -DZ BKN004
Loading
Personal Weather Stations






























Interactive Weather Map New forecast layout! Learn more

10-Day Weather Forecast

Advertisements
Track Severe Weather on mobile